sensor_id;sensor_type;location;lat;lon;timestamp;P1;durP1;ratioP1;P2;durP2;ratioP2
59468;SDS011;45277;52.768;18.262;2024-03-02T00:00:57;50.40;;;27.48;;
59468;SDS011;45277;52.768;18.262;2024-03-02T00:02:49;44.88;;;25.65;;
59468;SDS011;45277;52.768;18.262;2024-03-02T00:04:21;51.92;;;26.95;;
59468;SDS011;45277;52.768;18.262;2024-03-02T00:05:52;50.35;;;26.17;;
59468;SDS011;45277;52.768;18.262;2024-03-02T00:07:23;48.55;;;25.83;;
59468;SDS011;45277;52.768;18.262;2024-03-02T00:08:56;51.67;;;26.35;;
59468;SDS011;45277;52.768;18.262;2024-03-02T00:10:38;47.35;;;26.02;;
59468;SDS011;45277;52.768;18.262;2024-03-02T00:12:11;49.17;;;25.13;;
59468;SDS011;45277;52.768;18.262;2024-03-02T00:13:46;46.63;;;25.88;;
59468;SDS011;45277;52.768;18.262;2024-03-02T00:17:01;49.67;;;26.00;;
59468;SDS011;45277;52.768;18.262;2024-03-02T00:18:34;51.55;;;27.00;;
59468;SDS011;45277;52.768;18.262;2024-03-02T00:20:06;44.85;;;25.33;;
59468;SDS011;45277;52.768;18.262;2024-03-02T00:21:40;45.05;;;25.48;;
59468;SDS011;45277;52.768;18.262;2024-03-02T00:23:15;53.65;;;27.23;;
59468;SDS011;45277;52.768;18.262;2024-03-02T00:24:47;49.30;;;26.55;;
59468;SDS011;45277;52.768;18.262;2024-03-02T00:26:19;55.88;;;26.13;;
59468;SDS011;45277;52.768;18.262;2024-03-02T00:27:51;48.58;;;25.55;;
59468;SDS011;45277;52.768;18.262;2024-03-02T00:29:22;48.72;;;27.02;;
59468;SDS011;45277;52.768;18.262;2024-03-02T00:31:02;52.88;;;26.52;;
59468;SDS011;45277;52.768;18.262;2024-03-02T00:32:43;50.67;;;26.83;;
59468;SDS011;45277;52.768;18.262;2024-03-02T00:34:14;50.55;;;26.35;;
59468;SDS011;45277;52.768;18.262;2024-03-02T00:35:48;50.80;;;26.35;;
59468;SDS011;45277;52.768;18.262;2024-03-02T00:37:20;50.30;;;25.45;;
59468;SDS011;45277;52.768;18.262;2024-03-02T00:38:52;47.35;;;25.15;;
59468;SDS011;45277;52.768;18.262;2024-03-02T00:40:27;47.15;;;26.17;;
59468;SDS011;45277;52.768;18.262;2024-03-02T00:42:00;49.90;;;24.98;;
59468;SDS011;45277;52.768;18.262;2024-03-02T00:43:44;49.55;;;26.23;;
59468;SDS011;45277;52.768;18.262;2024-03-02T00:45:32;46.67;;;24.77;;
59468;SDS011;45277;52.768;18.262;2024-03-02T00:47:03;47.75;;;23.42;;
59468;SDS011;45277;52.768;18.262;2024-03-02T00:48:34;48.78;;;25.95;;
59468;SDS011;45277;52.768;18.262;2024-03-02T00:50:06;45.08;;;25.88;;
59468;SDS011;45277;52.768;18.262;2024-03-02T00:51:39;51.72;;;25.02;;
59468;SDS011;45277;52.768;18.262;2024-03-02T00:53:12;41.58;;;23.65;;
59468;SDS011;45277;52.768;18.262;2024-03-02T00:54:43;45.60;;;24.38;;
59468;SDS011;45277;52.768;18.262;2024-03-02T00:56:15;43.15;;;23.45;;
59468;SDS011;45277;52.768;18.262;2024-03-02T00:57:46;46.17;;;24.70;;
59468;SDS011;45277;52.768;18.262;2024-03-02T00:59:18;49.67;;;25.13;;
59468;SDS011;45277;52.768;18.262;2024-03-02T01:00:49;52.45;;;26.20;;
59468;SDS011;45277;52.768;18.262;2024-03-02T01:02:20;46.53;;;24.73;;
59468;SDS011;45277;52.768;18.262;2024-03-02T01:03:52;48.47;;;25.17;;
59468;SDS011;45277;52.768;18.262;2024-03-02T01:05:23;46.85;;;25.60;;
59468;SDS011;45277;52.768;18.262;2024-03-02T01:06:55;49.83;;;25.73;;
59468;SDS011;45277;52.768;18.262;2024-03-02T01:08:26;47.28;;;24.52;;
59468;SDS011;45277;52.768;18.262;2024-03-02T01:09:57;51.60;;;25.48;;
59468;SDS011;45277;52.768;18.262;2024-03-02T01:11:29;49.08;;;25.85;;
59468;SDS011;45277;52.768;18.262;2024-03-02T01:13:00;57.30;;;26.58;;
59468;SDS011;45277;52.768;18.262;2024-03-02T01:14:31;48.72;;;26.13;;
59468;SDS011;45277;52.768;18.262;2024-03-02T01:16:03;49.22;;;25.90;;
59468;SDS011;45277;52.768;18.262;2024-03-02T01:17:34;46.90;;;24.05;;
59468;SDS011;45277;52.768;18.262;2024-03-02T01:19:05;47.70;;;25.48;;
59468;SDS011;45277;52.768;18.262;2024-03-02T01:20:37;44.47;;;23.70;;
59468;SDS011;45277;52.768;18.262;2024-03-02T01:22:08;46.13;;;25.45;;
59468;SDS011;45277;52.768;18.262;2024-03-02T01:23:39;48.30;;;24.20;;
59468;SDS011;45277;52.768;18.262;2024-03-02T01:25:11;42.97;;;23.33;;
59468;SDS011;45277;52.768;18.262;2024-03-02T01:26:42;44.90;;;24.13;;
59468;SDS011;45277;52.768;18.262;2024-03-02T01:28:13;46.67;;;24.75;;
59468;SDS011;45277;52.768;18.262;2024-03-02T01:29:45;45.60;;;23.27;;
59468;SDS011;45277;52.768;18.262;2024-03-02T01:31:16;47.58;;;25.60;;
59468;SDS011;45277;52.768;18.262;2024-03-02T01:32:47;46.65;;;25.35;;
59468;SDS011;45277;52.768;18.262;2024-03-02T01:34:19;49.05;;;24.08;;
59468;SDS011;45277;52.768;18.262;2024-03-02T01:35:51;48.30;;;24.33;;
59468;SDS011;45277;52.768;18.262;2024-03-02T01:37:22;44.42;;;22.60;;
59468;SDS011;45277;52.768;18.262;2024-03-02T01:38:53;44.70;;;24.13;;
59468;SDS011;45277;52.768;18.262;2024-03-02T01:40:24;48.90;;;25.38;;
59468;SDS011;45277;52.768;18.262;2024-03-02T01:41:56;46.45;;;23.77;;
59468;SDS011;45277;52.768;18.262;2024-03-02T01:43:28;45.78;;;24.17;;
59468;SDS011;45277;52.768;18.262;2024-03-02T01:44:59;47.75;;;25.05;;
59468;SDS011;45277;52.768;18.262;2024-03-02T01:46:30;50.30;;;24.67;;
59468;SDS011;45277;52.768;18.262;2024-03-02T01:48:02;47.92;;;23.73;;
59468;SDS011;45277;52.768;18.262;2024-03-02T01:49:37;49.50;;;24.95;;
59468;SDS011;45277;52.768;18.262;2024-03-02T01:51:09;49.58;;;25.75;;
59468;SDS011;45277;52.768;18.262;2024-03-02T01:52:41;50.42;;;25.52;;
59468;SDS011;45277;52.768;18.262;2024-03-02T01:54:14;46.55;;;23.25;;
59468;SDS011;45277;52.768;18.262;2024-03-02T01:55:50;43.47;;;23.92;;
59468;SDS011;45277;52.768;18.262;2024-03-02T01:57:22;44.22;;;23.27;;
59468;SDS011;45277;52.768;18.262;2024-03-02T01:58:53;50.28;;;24.55;;
59468;SDS011;45277;52.768;18.262;2024-03-02T02:00:24;47.28;;;24.35;;
59468;SDS011;45277;52.768;18.262;2024-03-02T02:01:57;46.92;;;25.05;;
59468;SDS011;45277;52.768;18.262;2024-03-02T02:03:28;46.85;;;24.40;;
59468;SDS011;45277;52.768;18.262;2024-03-02T02:04:59;48.83;;;23.67;;
59468;SDS011;45277;52.768;18.262;2024-03-02T02:06:30;47.47;;;22.58;;
59468;SDS011;45277;52.768;18.262;2024-03-02T02:08:02;46.47;;;23.58;;
59468;SDS011;45277;52.768;18.262;2024-03-02T02:09:33;48.38;;;23.58;;
59468;SDS011;45277;52.768;18.262;2024-03-02T02:11:05;43.40;;;23.50;;
59468;SDS011;45277;52.768;18.262;2024-03-02T02:12:37;43.35;;;22.42;;
59468;SDS011;45277;52.768;18.262;2024-03-02T02:14:08;45.15;;;23.63;;
59468;SDS011;45277;52.768;18.262;2024-03-02T02:15:41;41.63;;;22.35;;
59468;SDS011;45277;52.768;18.262;2024-03-02T02:17:12;49.47;;;24.88;;
59468;SDS011;45277;52.768;18.262;2024-03-02T02:18:43;47.65;;;23.17;;
59468;SDS011;45277;52.768;18.262;2024-03-02T02:20:14;45.90;;;24.65;;
59468;SDS011;45277;52.768;18.262;2024-03-02T02:21:45;45.25;;;25.27;;
59468;SDS011;45277;52.768;18.262;2024-03-02T02:23:17;44.97;;;24.65;;
59468;SDS011;45277;52.768;18.262;2024-03-02T02:24:49;45.30;;;24.33;;
59468;SDS011;45277;52.768;18.262;2024-03-02T02:26:20;50.45;;;24.23;;
59468;SDS011;45277;52.768;18.262;2024-03-02T02:27:51;47.85;;;23.38;;
59468;SDS011;45277;52.768;18.262;2024-03-02T02:29:24;43.05;;;23.85;;
59468;SDS011;45277;52.768;18.262;2024-03-02T02:30:55;42.97;;;22.52;;
59468;SDS011;45277;52.768;18.262;2024-03-02T02:32:30;48.03;;;23.40;;
59468;SDS011;45277;52.768;18.262;2024-03-02T02:34:02;42.40;;;22.92;;
59468;SDS011;45277;52.768;18.262;2024-03-02T02:35:33;41.03;;;22.10;;
59468;SDS011;45277;52.768;18.262;2024-03-02T02:37:04;43.88;;;24.30;;
59468;SDS011;45277;52.768;18.262;2024-03-02T02:38:38;41.22;;;22.55;;
59468;SDS011;45277;52.768;18.262;2024-03-02T02:40:13;46.50;;;23.42;;
59468;SDS011;45277;52.768;18.262;2024-03-02T02:41:45;43.58;;;23.17;;
59468;SDS011;45277;52.768;18.262;2024-03-02T02:43:16;39.42;;;22.50;;
59468;SDS011;45277;52.768;18.262;2024-03-02T02:44:47;45.55;;;23.25;;
59468;SDS011;45277;52.768;18.262;2024-03-02T02:46:19;40.45;;;23.33;;
59468;SDS011;45277;52.768;18.262;2024-03-02T02:47:50;40.17;;;22.83;;
59468;SDS011;45277;52.768;18.262;2024-03-02T02:49:21;40.55;;;22.33;;
59468;SDS011;45277;52.768;18.262;2024-03-02T02:50:52;43.70;;;23.50;;
59468;SDS011;45277;52.768;18.262;2024-03-02T02:52:24;43.20;;;23.02;;
59468;SDS011;45277;52.768;18.262;2024-03-02T02:53:55;40.22;;;22.70;;
59468;SDS011;45277;52.768;18.262;2024-03-02T02:55:26;41.33;;;22.17;;
59468;SDS011;45277;52.768;18.262;2024-03-02T02:56:58;47.60;;;25.58;;
59468;SDS011;45277;52.768;18.262;2024-03-02T02:58:29;43.22;;;22.88;;
59468;SDS011;45277;52.768;18.262;2024-03-02T03:00:01;40.50;;;22.65;;
59468;SDS011;45277;52.768;18.262;2024-03-02T03:01:36;40.30;;;22.98;;
59468;SDS011;45277;52.768;18.262;2024-03-02T03:03:07;39.63;;;21.98;;
59468;SDS011;45277;52.768;18.262;2024-03-02T03:04:39;43.50;;;23.80;;
59468;SDS011;45277;52.768;18.262;2024-03-02T03:06:11;41.50;;;22.00;;
59468;SDS011;45277;52.768;18.262;2024-03-02T03:07:42;40.38;;;23.50;;
59468;SDS011;45277;52.768;18.262;2024-03-02T03:09:14;43.65;;;23.40;;
59468;SDS011;45277;52.768;18.262;2024-03-02T03:10:46;45.92;;;23.45;;
59468;SDS011;45277;52.768;18.262;2024-03-02T03:12:17;38.63;;;22.17;;
59468;SDS011;45277;52.768;18.262;2024-03-02T03:13:48;47.53;;;24.25;;
59468;SDS011;45277;52.768;18.262;2024-03-02T03:15:20;41.08;;;23.60;;
59468;SDS011;45277;52.768;18.262;2024-03-02T03:16:51;39.83;;;22.60;;
59468;SDS011;45277;52.768;18.262;2024-03-02T03:18:22;43.33;;;23.13;;
59468;SDS011;45277;52.768;18.262;2024-03-02T03:19:54;48.97;;;24.70;;
59468;SDS011;45277;52.768;18.262;2024-03-02T03:21:25;40.20;;;23.92;;
59468;SDS011;45277;52.768;18.262;2024-03-02T03:22:56;40.33;;;23.92;;
59468;SDS011;45277;52.768;18.262;2024-03-02T03:24:28;49.75;;;27.85;;
59468;SDS011;45277;52.768;18.262;2024-03-02T03:25:59;45.78;;;26.25;;
59468;SDS011;45277;52.768;18.262;2024-03-02T03:27:31;50.78;;;29.25;;
59468;SDS011;45277;52.768;18.262;2024-03-02T03:29:03;45.28;;;26.02;;
59468;SDS011;45277;52.768;18.262;2024-03-02T03:30:34;49.22;;;27.27;;
59468;SDS011;45277;52.768;18.262;2024-03-02T03:32:05;48.78;;;27.20;;
59468;SDS011;45277;52.768;18.262;2024-03-02T03:33:37;44.13;;;25.05;;
59468;SDS011;45277;52.768;18.262;2024-03-02T03:35:08;49.67;;;27.27;;
59468;SDS011;45277;52.768;18.262;2024-03-02T03:36:40;49.17;;;28.30;;
59468;SDS011;45277;52.768;18.262;2024-03-02T03:38:11;52.53;;;27.90;;
59468;SDS011;45277;52.768;18.262;2024-03-02T03:39:42;50.85;;;27.67;;
59468;SDS011;45277;52.768;18.262;2024-03-02T03:41:14;47.97;;;28.50;;
59468;SDS011;45277;52.768;18.262;2024-03-02T03:42:46;51.17;;;27.95;;
59468;SDS011;45277;52.768;18.262;2024-03-02T03:44:17;51.28;;;28.58;;
59468;SDS011;45277;52.768;18.262;2024-03-02T03:45:48;49.83;;;27.35;;
59468;SDS011;45277;52.768;18.262;2024-03-02T03:47:19;46.90;;;27.45;;
59468;SDS011;45277;52.768;18.262;2024-03-02T03:48:51;49.97;;;28.35;;
59468;SDS011;45277;52.768;18.262;2024-03-02T03:50:22;50.10;;;28.58;;
59468;SDS011;45277;52.768;18.262;2024-03-02T03:51:53;51.67;;;28.98;;
59468;SDS011;45277;52.768;18.262;2024-03-02T03:53:25;49.08;;;28.23;;
59468;SDS011;45277;52.768;18.262;2024-03-02T03:54:56;43.97;;;25.13;;
59468;SDS011;45277;52.768;18.262;2024-03-02T03:56:27;46.25;;;27.08;;
59468;SDS011;45277;52.768;18.262;2024-03-02T03:57:58;50.05;;;26.98;;
59468;SDS011;45277;52.768;18.262;2024-03-02T03:59:29;45.97;;;27.70;;
59468;SDS011;45277;52.768;18.262;2024-03-02T04:01:01;49.08;;;27.55;;
59468;SDS011;45277;52.768;18.262;2024-03-02T04:02:32;49.13;;;28.63;;
59468;SDS011;45277;52.768;18.262;2024-03-02T04:04:03;44.97;;;27.70;;
59468;SDS011;45277;52.768;18.262;2024-03-02T04:05:35;44.28;;;26.30;;
59468;SDS011;45277;52.768;18.262;2024-03-02T04:07:06;49.25;;;27.13;;
59468;SDS011;45277;52.768;18.262;2024-03-02T04:08:37;51.42;;;27.45;;
59468;SDS011;45277;52.768;18.262;2024-03-02T04:10:09;45.90;;;26.30;;
59468;SDS011;45277;52.768;18.262;2024-03-02T04:11:41;45.65;;;27.27;;
59468;SDS011;45277;52.768;18.262;2024-03-02T04:13:12;45.97;;;26.92;;
59468;SDS011;45277;52.768;18.262;2024-03-02T04:14:43;40.72;;;25.55;;
59468;SDS011;45277;52.768;18.262;2024-03-02T04:16:15;43.03;;;26.15;;
59468;SDS011;45277;52.768;18.262;2024-03-02T04:17:46;46.42;;;25.75;;
59468;SDS011;45277;52.768;18.262;2024-03-02T04:19:17;41.78;;;26.08;;
59468;SDS011;45277;52.768;18.262;2024-03-02T04:20:49;46.88;;;26.15;;
59468;SDS011;45277;52.768;18.262;2024-03-02T04:22:20;46.13;;;27.60;;
59468;SDS011;45277;52.768;18.262;2024-03-02T04:23:51;44.30;;;25.33;;
59468;SDS011;45277;52.768;18.262;2024-03-02T04:25:23;45.10;;;24.67;;
59468;SDS011;45277;52.768;18.262;2024-03-02T04:26:54;46.28;;;25.17;;
59468;SDS011;45277;52.768;18.262;2024-03-02T04:28:25;42.85;;;25.20;;
59468;SDS011;45277;52.768;18.262;2024-03-02T04:29:57;41.80;;;25.88;;
59468;SDS011;45277;52.768;18.262;2024-03-02T04:31:28;41.60;;;24.58;;
59468;SDS011;45277;52.768;18.262;2024-03-02T04:32:59;42.70;;;24.92;;
59468;SDS011;45277;52.768;18.262;2024-03-02T04:34:33;40.38;;;23.88;;
59468;SDS011;45277;52.768;18.262;2024-03-02T04:36:04;38.83;;;23.77;;
59468;SDS011;45277;52.768;18.262;2024-03-02T04:37:35;44.25;;;25.20;;
59468;SDS011;45277;52.768;18.262;2024-03-02T04:39:07;41.92;;;25.45;;
59468;SDS011;45277;52.768;18.262;2024-03-02T04:40:40;42.30;;;24.20;;
59468;SDS011;45277;52.768;18.262;2024-03-02T04:42:11;41.80;;;24.77;;
59468;SDS011;45277;52.768;18.262;2024-03-02T04:43:42;40.22;;;24.25;;
59468;SDS011;45277;52.768;18.262;2024-03-02T04:45:14;39.17;;;23.42;;
59468;SDS011;45277;52.768;18.262;2024-03-02T04:46:45;38.47;;;23.33;;
59468;SDS011;45277;52.768;18.262;2024-03-02T04:48:16;37.00;;;24.42;;
59468;SDS011;45277;52.768;18.262;2024-03-02T04:49:48;43.65;;;25.42;;
59468;SDS011;45277;52.768;18.262;2024-03-02T04:51:19;41.83;;;25.25;;
59468;SDS011;45277;52.768;18.262;2024-03-02T04:52:50;43.97;;;26.75;;
59468;SDS011;45277;52.768;18.262;2024-03-02T04:54:21;40.50;;;25.58;;
59468;SDS011;45277;52.768;18.262;2024-03-02T04:55:53;39.83;;;25.70;;
59468;SDS011;45277;52.768;18.262;2024-03-02T04:57:24;46.80;;;26.65;;
59468;SDS011;45277;52.768;18.262;2024-03-02T04:58:55;43.20;;;26.05;;
59468;SDS011;45277;52.768;18.262;2024-03-02T05:00:27;43.08;;;27.48;;
59468;SDS011;45277;52.768;18.262;2024-03-02T05:01:58;44.08;;;26.13;;
59468;SDS011;45277;52.768;18.262;2024-03-02T05:03:29;37.90;;;24.75;;
59468;SDS011;45277;52.768;18.262;2024-03-02T05:05:01;43.40;;;26.63;;
59468;SDS011;45277;52.768;18.262;2024-03-02T05:06:33;48.10;;;26.70;;
59468;SDS011;45277;52.768;18.262;2024-03-02T05:08:04;39.38;;;24.40;;
59468;SDS011;45277;52.768;18.262;2024-03-02T05:09:36;45.53;;;25.40;;
59468;SDS011;45277;52.768;18.262;2024-03-02T05:11:08;42.10;;;25.67;;
59468;SDS011;45277;52.768;18.262;2024-03-02T05:12:58;40.97;;;24.85;;
59468;SDS011;45277;52.768;18.262;2024-03-02T05:14:30;44.72;;;26.10;;
59468;SDS011;45277;52.768;18.262;2024-03-02T05:16:01;40.83;;;24.65;;
59468;SDS011;45277;52.768;18.262;2024-03-02T05:17:32;43.40;;;25.70;;
59468;SDS011;45277;52.768;18.262;2024-03-02T05:19:04;39.30;;;23.25;;
59468;SDS011;45277;52.768;18.262;2024-03-02T05:20:37;36.58;;;22.75;;
59468;SDS011;45277;52.768;18.262;2024-03-02T05:22:08;43.72;;;25.33;;
59468;SDS011;45277;52.768;18.262;2024-03-02T05:23:39;41.53;;;22.48;;
59468;SDS011;45277;52.768;18.262;2024-03-02T05:25:11;45.17;;;25.63;;
59468;SDS011;45277;52.768;18.262;2024-03-02T05:26:42;41.97;;;23.95;;
59468;SDS011;45277;52.768;18.262;2024-03-02T05:28:14;41.20;;;23.10;;
59468;SDS011;45277;52.768;18.262;2024-03-02T05:29:45;39.15;;;23.30;;
59468;SDS011;45277;52.768;18.262;2024-03-02T05:31:17;42.05;;;25.20;;
59468;SDS011;45277;52.768;18.262;2024-03-02T05:32:48;42.20;;;24.08;;
59468;SDS011;45277;52.768;18.262;2024-03-02T05:34:20;44.65;;;25.05;;
59468;SDS011;45277;52.768;18.262;2024-03-02T05:35:51;43.50;;;24.60;;
59468;SDS011;45277;52.768;18.262;2024-03-02T05:37:22;39.30;;;22.48;;
59468;SDS011;45277;52.768;18.262;2024-03-02T05:38:53;36.92;;;22.75;;
59468;SDS011;45277;52.768;18.262;2024-03-02T05:40:24;41.63;;;23.77;;
59468;SDS011;45277;52.768;18.262;2024-03-02T05:41:56;41.60;;;22.58;;
59468;SDS011;45277;52.768;18.262;2024-03-02T05:43:27;40.42;;;24.00;;
59468;SDS011;45277;52.768;18.262;2024-03-02T05:44:59;37.17;;;21.90;;
59468;SDS011;45277;52.768;18.262;2024-03-02T05:46:30;37.00;;;22.23;;
59468;SDS011;45277;52.768;18.262;2024-03-02T05:48:02;36.67;;;22.50;;
59468;SDS011;45277;52.768;18.262;2024-03-02T05:49:34;44.83;;;25.95;;
59468;SDS011;45277;52.768;18.262;2024-03-02T05:51:05;42.92;;;25.65;;
59468;SDS011;45277;52.768;18.262;2024-03-02T05:52:37;44.55;;;27.15;;
59468;SDS011;45277;52.768;18.262;2024-03-02T05:54:09;46.72;;;26.20;;
59468;SDS011;45277;52.768;18.262;2024-03-02T05:55:40;42.70;;;26.88;;
59468;SDS011;45277;52.768;18.262;2024-03-02T05:57:11;42.38;;;25.83;;
59468;SDS011;45277;52.768;18.262;2024-03-02T05:59:18;43.20;;;24.92;;
59468;SDS011;45277;52.768;18.262;2024-03-02T06:00:50;44.83;;;25.90;;
59468;SDS011;45277;52.768;18.262;2024-03-02T06:02:21;44.00;;;25.70;;
59468;SDS011;45277;52.768;18.262;2024-03-02T06:03:52;39.13;;;24.35;;
59468;SDS011;45277;52.768;18.262;2024-03-02T06:05:23;42.17;;;26.00;;
59468;SDS011;45277;52.768;18.262;2024-03-02T06:06:55;44.05;;;27.73;;
59468;SDS011;45277;52.768;18.262;2024-03-02T06:08:26;44.15;;;25.58;;
59468;SDS011;45277;52.768;18.262;2024-03-02T06:09:58;40.80;;;25.08;;
59468;SDS011;45277;52.768;18.262;2024-03-02T06:11:29;39.97;;;25.05;;
59468;SDS011;45277;52.768;18.262;2024-03-02T06:13:00;39.53;;;25.65;;
59468;SDS011;45277;52.768;18.262;2024-03-02T06:14:32;42.22;;;25.98;;
59468;SDS011;45277;52.768;18.262;2024-03-02T06:16:03;41.88;;;25.20;;
59468;SDS011;45277;52.768;18.262;2024-03-02T06:17:37;39.10;;;25.58;;
59468;SDS011;45277;52.768;18.262;2024-03-02T06:19:08;37.65;;;24.52;;
59468;SDS011;45277;52.768;18.262;2024-03-02T06:20:40;39.63;;;25.05;;
59468;SDS011;45277;52.768;18.262;2024-03-02T06:22:11;42.45;;;26.10;;
59468;SDS011;45277;52.768;18.262;2024-03-02T06:23:42;43.92;;;25.38;;
59468;SDS011;45277;52.768;18.262;2024-03-02T06:25:13;39.45;;;24.92;;
59468;SDS011;45277;52.768;18.262;2024-03-02T06:26:45;39.08;;;24.85;;
59468;SDS011;45277;52.768;18.262;2024-03-02T06:28:16;38.90;;;23.52;;
59468;SDS011;45277;52.768;18.262;2024-03-02T06:29:47;40.20;;;22.65;;
59468;SDS011;45277;52.768;18.262;2024-03-02T06:31:19;35.13;;;21.40;;
59468;SDS011;45277;52.768;18.262;2024-03-02T06:32:50;36.65;;;21.05;;
59468;SDS011;45277;52.768;18.262;2024-03-02T06:34:21;36.05;;;21.45;;
59468;SDS011;45277;52.768;18.262;2024-03-02T06:35:52;34.38;;;21.13;;
59468;SDS011;45277;52.768;18.262;2024-03-02T06:37:24;37.60;;;21.58;;
59468;SDS011;45277;52.768;18.262;2024-03-02T06:38:55;35.05;;;21.30;;
59468;SDS011;45277;52.768;18.262;2024-03-02T06:40:27;37.08;;;22.10;;
59468;SDS011;45277;52.768;18.262;2024-03-02T06:41:58;36.38;;;21.20;;
59468;SDS011;45277;52.768;18.262;2024-03-02T06:43:29;31.17;;;20.35;;
59468;SDS011;45277;52.768;18.262;2024-03-02T06:45:01;34.15;;;19.73;;
59468;SDS011;45277;52.768;18.262;2024-03-02T06:46:33;39.60;;;21.48;;
59468;SDS011;45277;52.768;18.262;2024-03-02T06:48:04;41.22;;;21.83;;
59468;SDS011;45277;52.768;18.262;2024-03-02T06:49:36;37.95;;;21.80;;
59468;SDS011;45277;52.768;18.262;2024-03-02T06:51:07;33.97;;;20.23;;
59468;SDS011;45277;52.768;18.262;2024-03-02T06:52:39;35.08;;;20.98;;
59468;SDS011;45277;52.768;18.262;2024-03-02T06:54:10;37.03;;;21.92;;
59468;SDS011;45277;52.768;18.262;2024-03-02T06:55:41;36.90;;;20.52;;
59468;SDS011;45277;52.768;18.262;2024-03-02T06:57:12;40.22;;;21.00;;
59468;SDS011;45277;52.768;18.262;2024-03-02T06:58:44;36.85;;;21.00;;
59468;SDS011;45277;52.768;18.262;2024-03-02T07:00:15;32.42;;;20.42;;
59468;SDS011;45277;52.768;18.262;2024-03-02T07:01:48;30.95;;;20.50;;
59468;SDS011;45277;52.768;18.262;2024-03-02T07:03:19;37.17;;;21.02;;
59468;SDS011;45277;52.768;18.262;2024-03-02T07:04:51;34.83;;;21.88;;
59468;SDS011;45277;52.768;18.262;2024-03-02T07:06:22;32.97;;;19.73;;
59468;SDS011;45277;52.768;18.262;2024-03-02T07:07:53;37.50;;;21.17;;
59468;SDS011;45277;52.768;18.262;2024-03-02T07:09:25;36.45;;;21.27;;
59468;SDS011;45277;52.768;18.262;2024-03-02T07:10:56;35.60;;;20.27;;
59468;SDS011;45277;52.768;18.262;2024-03-02T07:12:27;38.40;;;21.67;;
59468;SDS011;45277;52.768;18.262;2024-03-02T07:13:59;34.17;;;20.58;;
59468;SDS011;45277;52.768;18.262;2024-03-02T07:15:30;38.45;;;21.27;;
59468;SDS011;45277;52.768;18.262;2024-03-02T07:17:14;33.53;;;20.33;;
59468;SDS011;45277;52.768;18.262;2024-03-02T07:18:46;36.92;;;20.65;;
59468;SDS011;45277;52.768;18.262;2024-03-02T07:20:22;31.63;;;20.10;;
59468;SDS011;45277;52.768;18.262;2024-03-02T07:21:53;33.53;;;19.88;;
59468;SDS011;45277;52.768;18.262;2024-03-02T07:23:24;33.85;;;20.50;;
59468;SDS011;45277;52.768;18.262;2024-03-02T07:24:57;38.53;;;22.23;;
59468;SDS011;45277;52.768;18.262;2024-03-02T07:26:29;34.28;;;19.98;;
59468;SDS011;45277;52.768;18.262;2024-03-02T07:28:02;35.42;;;20.55;;
59468;SDS011;45277;52.768;18.262;2024-03-02T07:29:34;33.08;;;21.10;;
59468;SDS011;45277;52.768;18.262;2024-03-02T07:31:06;33.67;;;20.20;;
59468;SDS011;45277;52.768;18.262;2024-03-02T07:32:38;37.72;;;20.15;;
59468;SDS011;45277;52.768;18.262;2024-03-02T07:34:09;31.15;;;19.60;;
59468;SDS011;45277;52.768;18.262;2024-03-02T07:35:40;36.47;;;22.08;;
59468;SDS011;45277;52.768;18.262;2024-03-02T07:37:12;57.30;;;25.48;;
59468;SDS011;45277;52.768;18.262;2024-03-02T07:38:43;46.05;;;23.65;;
59468;SDS011;45277;52.768;18.262;2024-03-02T07:40:15;38.83;;;20.98;;
59468;SDS011;45277;52.768;18.262;2024-03-02T07:41:46;31.95;;;17.98;;
59468;SDS011;45277;52.768;18.262;2024-03-02T07:43:18;29.40;;;18.50;;
59468;SDS011;45277;52.768;18.262;2024-03-02T07:44:50;27.50;;;17.98;;
59468;SDS011;45277;52.768;18.262;2024-03-02T07:46:21;28.17;;;16.98;;
59468;SDS011;45277;52.768;18.262;2024-03-02T07:47:52;26.48;;;17.63;;
59468;SDS011;45277;52.768;18.262;2024-03-02T07:49:24;30.73;;;17.83;;
59468;SDS011;45277;52.768;18.262;2024-03-02T07:50:55;28.67;;;17.02;;
59468;SDS011;45277;52.768;18.262;2024-03-02T07:52:26;27.52;;;17.10;;
59468;SDS011;45277;52.768;18.262;2024-03-02T07:53:57;28.42;;;16.35;;
59468;SDS011;45277;52.768;18.262;2024-03-02T07:55:29;30.75;;;17.77;;
59468;SDS011;45277;52.768;18.262;2024-03-02T07:57:01;26.50;;;17.08;;
59468;SDS011;45277;52.768;18.262;2024-03-02T07:58:32;27.98;;;17.00;;
59468;SDS011;45277;52.768;18.262;2024-03-02T08:00:04;26.17;;;16.40;;
59468;SDS011;45277;52.768;18.262;2024-03-02T08:01:36;26.92;;;17.73;;
59468;SDS011;45277;52.768;18.262;2024-03-02T08:03:07;27.05;;;17.30;;
59468;SDS011;45277;52.768;18.262;2024-03-02T08:04:41;26.92;;;17.13;;
59468;SDS011;45277;52.768;18.262;2024-03-02T08:06:13;28.60;;;17.52;;
59468;SDS011;45277;52.768;18.262;2024-03-02T08:07:47;29.15;;;18.17;;
59468;SDS011;45277;52.768;18.262;2024-03-02T08:09:23;29.88;;;18.17;;
59468;SDS011;45277;52.768;18.262;2024-03-02T08:10:54;26.98;;;16.60;;
59468;SDS011;45277;52.768;18.262;2024-03-02T08:12:25;28.35;;;18.02;;
59468;SDS011;45277;52.768;18.262;2024-03-02T08:13:57;27.50;;;16.67;;
59468;SDS011;45277;52.768;18.262;2024-03-02T08:15:28;31.23;;;17.65;;
59468;SDS011;45277;52.768;18.262;2024-03-02T08:16:59;29.27;;;17.67;;
59468;SDS011;45277;52.768;18.262;2024-03-02T08:18:32;25.27;;;15.50;;
59468;SDS011;45277;52.768;18.262;2024-03-02T08:20:04;23.52;;;15.80;;
59468;SDS011;45277;52.768;18.262;2024-03-02T08:21:36;24.75;;;15.82;;
59468;SDS011;45277;52.768;18.262;2024-03-02T08:23:08;26.92;;;15.85;;
59468;SDS011;45277;52.768;18.262;2024-03-02T08:24:39;30.83;;;18.15;;
59468;SDS011;45277;52.768;18.262;2024-03-02T08:26:11;28.05;;;16.95;;
59468;SDS011;45277;52.768;18.262;2024-03-02T08:27:42;26.33;;;17.05;;
59468;SDS011;45277;52.768;18.262;2024-03-02T08:29:13;28.83;;;16.80;;
59468;SDS011;45277;52.768;18.262;2024-03-02T08:30:44;26.90;;;15.80;;
59468;SDS011;45277;52.768;18.262;2024-03-02T08:32:16;25.13;;;16.42;;
59468;SDS011;45277;52.768;18.262;2024-03-02T08:33:48;29.17;;;16.67;;
59468;SDS011;45277;52.768;18.262;2024-03-02T08:35:19;25.83;;;16.42;;
59468;SDS011;45277;52.768;18.262;2024-03-02T08:36:50;25.20;;;16.20;;
59468;SDS011;45277;52.768;18.262;2024-03-02T08:38:21;29.25;;;17.27;;
59468;SDS011;45277;52.768;18.262;2024-03-02T08:39:53;29.33;;;17.27;;
59468;SDS011;45277;52.768;18.262;2024-03-02T08:41:25;28.98;;;17.73;;
59468;SDS011;45277;52.768;18.262;2024-03-02T08:42:56;25.13;;;16.45;;
59468;SDS011;45277;52.768;18.262;2024-03-02T08:44:27;29.33;;;18.10;;
59468;SDS011;45277;52.768;18.262;2024-03-02T08:45:59;26.65;;;16.80;;
59468;SDS011;45277;52.768;18.262;2024-03-02T08:47:30;32.65;;;17.05;;
59468;SDS011;45277;52.768;18.262;2024-03-02T08:49:01;26.90;;;17.42;;
59468;SDS011;45277;52.768;18.262;2024-03-02T08:50:33;29.33;;;17.95;;
59468;SDS011;45277;52.768;18.262;2024-03-02T08:52:04;25.60;;;16.75;;